Česky Dansk Deutsch English Español Suomi Français Magyar Italiano Nederlands norsk Polski Português svenska Türkçe

 

Het Weer

Burgas (Bulgarije)

23:30, 14 augustus 2016 (GMT)

NWNNE
WE
SWSSE
Home            
Burgas Varna Corlu Gorna Orechovista Rousse Istanbul / Ataturk Kogalniceanu Alexandroupoli Airport Plovdiv Istanbul / Sabiha Gokcen Bandirma Bucuresti / Imh Bucuresti Otopeni Canakkale Bursa Topel Tur-Afb Chrysoupoli Airport Bursa / Yenisehir, Mil-Civ Tulcea Balikesir Sofia Observ. Limnos Airport Craiova

Om een weerknop op uw website of weblog te plaatsen, copieer onderstaande code en plak die in uw pagina. In het eerste vakje staat HTML-code, in het tweede vakje UBB-code.


Add to Google

Details

Wind speed:1 bf, 3 kn, 1.5 m/s, 3.5 miles/h, 5.6 km/h
Wind direction:WNW, 300°
Visibilidade global:Maior de 10000 m, 10 km, 32800 ft, 6.2 miles
Clouds:CAVOC
Temperatura:16°C, 61°F
Ponto de orvalho:11°C, 52°F
Pressão atmosférica:1021 hPa, 765.8 mmHg, 30.15 inHg, 1.008 atm
Humidade relativa:72.2 %
METAR:LBBG 142330Z 30003KT CAVOK 16/11 Q1021 NOSIG

Snelkoppelingen

Actuele weersinformatie van de hele wereld. Voeg locaties toe met het plus (+) symbool. Deze snelkoppelingen kunnen worden toegevoegd aan Google.

Lid van de Technetium groep

website free tracking
StatCounter NetStat W3C Validator

04-10-2022 06:01:41
astro.technetium.be money.technetium.be phote.technetium.be tafeltennistafel.technetium.be www.ligfiets.net